createdAt,value
2018-12-24T00:02:55.568Z,96842.12
2018-12-24T00:06:02.456Z,96842.12
2018-12-24T00:09:09.124Z,96854.23
2018-12-24T00:12:16.064Z,96853.28
2018-12-24T00:15:22.796Z,96841.88
2018-12-24T00:18:29.564Z,96838.69
2018-12-24T00:21:36.267Z,96852.63
2018-12-24T00:24:43.269Z,96860.05
2018-12-24T00:27:50.210Z,96856.88
2018-12-24T00:30:57.106Z,96861.95
2018-12-24T00:34:04.275Z,96866.34
2018-12-24T00:37:10.933Z,96870.19
2018-12-24T00:40:17.856Z,96856.02
2018-12-24T00:43:24.658Z,96856.38
2018-12-24T00:46:31.466Z,96860.22
2018-12-24T00:49:38.125Z,96862.97
2018-12-24T00:52:47.827Z,96867.96
2018-12-24T00:55:54.799Z,96868.97
2018-12-24T00:59:01.945Z,96866.13
2018-12-24T01:02:08.890Z,96869.09
2018-12-24T01:05:15.821Z,96891.14
2018-12-24T01:08:22.738Z,96896.80
2018-12-24T01:11:29.665Z,96888.32
2018-12-24T01:14:36.776Z,96890.78
2018-12-24T01:17:45.504Z,96889.09
2018-12-24T01:20:52.473Z,96885.05
2018-12-24T01:23:59.197Z,96901.52
2018-12-24T01:27:05.919Z,96896.19
2018-12-24T01:30:12.918Z,96909.23
2018-12-24T01:33:19.888Z,96924.16
2018-12-24T01:36:28.685Z,96917.00
2018-12-24T01:39:35.551Z,96923.03
2018-12-24T01:42:44.339Z,96933.91
2018-12-24T01:45:51.480Z,96937.00
2018-12-24T01:48:58.448Z,96945.45
2018-12-24T01:52:05.316Z,96936.59
2018-12-24T01:55:12.267Z,96939.03
2018-12-24T01:58:19.129Z,96947.45
2018-12-24T02:01:26.329Z,96954.50
2018-12-24T02:04:33.016Z,96952.50
2018-12-24T02:07:39.994Z,96963.98
2018-12-24T02:10:46.940Z,96945.91
2018-12-24T02:13:53.854Z,96963.25
2018-12-24T02:17:00.748Z,96947.45
2018-12-24T02:20:07.683Z,96957.88
2018-12-24T02:23:14.652Z,96953.97
2018-12-24T02:26:21.402Z,96964.55
2018-12-24T02:29:28.371Z,96967.45
2018-12-24T02:32:35.035Z,96964.34
2018-12-24T02:35:45.073Z,96970.38
2018-12-24T02:38:52.411Z,96978.80
2018-12-24T02:41:59.431Z,96989.13
2018-12-24T02:45:06.156Z,97011.55
2018-12-24T02:48:12.815Z,97003.62
2018-12-24T02:51:19.818Z,97013.84
2018-12-24T02:54:26.684Z,97028.86
2018-12-24T02:57:33.613Z,97027.61
2018-12-24T03:00:42.003Z,97012.83
2018-12-24T03:03:49.000Z,97024.17
2018-12-24T03:06:55.940Z,97029.16
2018-12-24T03:10:02.747Z,97034.80
2018-12-24T03:13:09.463Z,97035.23
2018-12-24T03:16:16.695Z,97029.51
2018-12-24T03:19:23.621Z,97027.55
2018-12-24T03:22:32.245Z,97019.05
2018-12-24T03:25:39.491Z,97014.80
2018-12-24T03:28:46.419Z,97025.02
2018-12-24T03:31:53.102Z,97038.97
2018-12-24T03:34:59.868Z,97050.29
2018-12-24T03:38:07.054Z,97047.80
2018-12-24T03:41:14.085Z,97049.39
2018-12-24T03:44:21.142Z,97052.36
2018-12-24T03:47:28.434Z,97062.08
2018-12-24T03:50:35.318Z,97073.02
2018-12-24T03:53:44.016Z,97073.77
2018-12-24T03:56:50.902Z,97081.91
2018-12-24T03:59:57.930Z,97087.36
2018-12-24T04:03:04.658Z,97086.05
2018-12-24T04:06:11.873Z,97087.28
2018-12-24T04:09:18.583Z,97091.01
2018-12-24T04:12:25.592Z,97094.32
2018-12-24T04:15:32.498Z,97095.59
2018-12-24T04:18:39.596Z,97102.34
2018-12-24T04:21:46.562Z,97111.62
2018-12-24T04:24:53.543Z,97109.92
2018-12-24T04:28:00.196Z,97115.83
2018-12-24T04:31:06.908Z,97117.88
2018-12-24T04:34:13.848Z,97129.27
2018-12-24T04:37:20.778Z,97138.48
2018-12-24T04:40:27.666Z,97146.95
2018-12-24T04:43:35.108Z,97149.06
2018-12-24T04:46:45.154Z,97163.36
2018-12-24T04:49:52.071Z,97175.25
2018-12-24T04:52:58.855Z,97182.78
2018-12-24T04:56:05.552Z,97194.99
2018-12-24T04:59:12.668Z,97208.94
2018-12-24T05:02:19.636Z,97216.58
2018-12-24T05:05:26.532Z,97234.28
2018-12-24T05:08:33.586Z,97237.31
2018-12-24T05:11:40.286Z,97260.13
2018-12-24T05:14:47.499Z,97264.37
2018-12-24T05:17:54.422Z,97275.37
2018-12-24T05:21:01.359Z,97283.36
2018-12-24T05:24:08.239Z,97287.15
2018-12-24T05:27:15.206Z,97299.81
2018-12-24T05:30:22.365Z,97309.11
2018-12-24T05:33:29.352Z,97322.17
2018-12-24T05:36:36.239Z,97333.54
2018-12-24T05:39:43.221Z,97340.75
2018-12-24T05:42:50.403Z,97359.28
2018-12-24T05:45:57.788Z,97370.66
2018-12-24T05:49:04.936Z,97380.33
2018-12-24T05:52:12.078Z,97392.56
2018-12-24T05:55:18.995Z,97403.09
2018-12-24T05:58:25.908Z,97414.88
2018-12-24T06:01:32.631Z,97417.41
2018-12-24T06:04:39.816Z,97430.45
2018-12-24T06:07:48.109Z,97446.02
2018-12-24T06:10:55.345Z,97456.53
2018-12-24T06:14:02.036Z,97472.55
2018-12-24T06:17:09.037Z,97479.26
2018-12-24T06:20:15.934Z,97483.89
2018-12-24T06:23:22.887Z,97498.19
2018-12-24T06:26:29.781Z,97516.73
2018-12-24T06:29:37.069Z,97530.20
2018-12-24T06:32:46.366Z,97538.22
2018-12-24T06:35:53.523Z,97544.50
2018-12-24T06:39:00.451Z,97559.26
2018-12-24T06:42:07.471Z,97572.31
2018-12-24T06:45:14.347Z,97582.42
2018-12-24T06:48:21.785Z,97595.09
2018-12-24T06:51:28.668Z,97604.39
2018-12-24T06:54:35.600Z,97627.99
2018-12-24T06:57:44.692Z,97639.83
2018-12-24T07:00:51.693Z,97646.16
2018-12-24T07:03:58.671Z,97654.61
2018-12-24T07:07:07.725Z,97671.46
2018-12-24T07:10:14.707Z,97686.63
2018-12-24T07:13:21.903Z,97691.69
2018-12-24T07:16:28.890Z,97698.87
2018-12-24T07:19:35.811Z,97707.29
2018-12-24T07:22:45.082Z,97728.34
2018-12-24T07:25:52.247Z,97739.31
2018-12-24T07:29:01.963Z,97755.75
2018-12-24T07:32:08.670Z,97772.16
2018-12-24T07:35:15.348Z,97771.75
2018-12-24T07:38:22.313Z,97784.41
2018-12-24T07:41:28.996Z,97794.53
2018-12-24T07:44:36.023Z,97803.34
2018-12-24T07:47:45.683Z,97817.26
2018-12-24T07:50:52.743Z,97826.90
2018-12-24T07:53:59.664Z,97836.97
2018-12-24T07:57:06.608Z,97850.88
2018-12-24T08:00:13.249Z,97858.51
2018-12-24T08:03:20.136Z,97868.20
2018-12-24T08:06:27.278Z,97869.40
2018-12-24T08:09:34.248Z,97879.59
2018-12-24T08:12:41.221Z,97880.78
2018-12-24T08:15:48.132Z,97890.86
2018-12-24T08:18:55.041Z,97891.00
2018-12-24T08:22:01.831Z,97897.21
2018-12-24T08:25:08.951Z,97909.03
2018-12-24T08:28:15.952Z,97922.08
2018-12-24T08:31:23.996Z,97928.02
2018-12-24T08:34:31.400Z,97936.02
2018-12-24T08:37:38.111Z,97935.56
2018-12-24T08:40:44.994Z,97949.88
2018-12-24T08:43:51.820Z,97957.47
2018-12-24T08:46:58.744Z,97967.17
2018-12-24T08:50:05.983Z,97971.77
2018-12-24T08:53:13.347Z,97978.06
2018-12-24T08:56:20.222Z,97978.55
2018-12-24T08:59:27.246Z,97983.28
2018-12-24T09:02:34.685Z,97987.91
2018-12-24T09:05:42.783Z,97992.52
2018-12-24T09:08:49.434Z,97995.91
2018-12-24T09:11:56.686Z,98001.38
2018-12-24T09:15:03.632Z,98008.58
2018-12-24T09:18:10.729Z,98018.19
2018-12-24T09:21:17.660Z,98019.52
2018-12-24T09:24:24.822Z,98030.88
2018-12-24T09:27:31.789Z,98023.69
2018-12-24T09:30:44.870Z,98035.46
2018-12-24T09:33:52.488Z,98042.52
2018-12-24T09:36:59.854Z,98052.23
2018-12-24T09:40:08.579Z,98061.09
2018-12-24T09:43:15.738Z,98063.23
2018-12-24T09:46:22.647Z,98073.73
2018-12-24T09:49:29.705Z,98069.55
2018-12-24T09:52:45.776Z,98067.40
2018-12-24T09:55:53.089Z,98075.91
2018-12-24T09:58:59.976Z,98084.78
2018-12-24T10:02:07.326Z,98091.45
2018-12-24T10:05:18.196Z,98094.02
2018-12-24T10:08:26.177Z,98094.82
2018-12-24T10:11:33.089Z,98093.18
2018-12-24T10:14:40.295Z,98093.88
2018-12-24T10:17:49.956Z,98098.98
2018-12-24T10:20:56.980Z,98111.26
2018-12-24T10:24:04.190Z,98117.56
2018-12-24T10:27:11.423Z,98122.45
2018-12-24T10:30:18.445Z,98117.48
2018-12-24T10:33:25.452Z,98133.41
2018-12-24T10:36:32.566Z,98133.94
2018-12-24T10:39:39.750Z,98135.95
2018-12-24T10:42:48.384Z,98135.89
2018-12-24T10:45:56.900Z,98139.13
2018-12-24T10:49:10.305Z,98142.77
2018-12-24T10:52:18.117Z,98150.02
2018-12-24T10:55:25.305Z,98159.55
2018-12-24T10:58:32.441Z,98157.55
2018-12-24T11:01:39.471Z,98161.44
2018-12-24T11:04:48.053Z,98177.30
2018-12-24T11:07:54.927Z,98175.95
2018-12-24T11:11:02.742Z,98177.23
2018-12-24T11:14:09.893Z,98175.91
2018-12-24T11:17:17.183Z,98176.41
2018-12-24T11:20:24.396Z,98182.77
2018-12-24T11:23:31.373Z,98186.20
2018-12-24T11:26:38.281Z,98195.27
2018-12-24T11:29:45.405Z,98199.91
2018-12-24T11:32:52.073Z,98205.34
2018-12-24T11:35:59.312Z,98205.30
2018-12-24T11:39:06.963Z,98206.20
2018-12-24T11:42:14.057Z,98211.68
2018-12-24T11:45:21.057Z,98213.61
2018-12-24T11:48:28.043Z,98223.34
2018-12-24T11:51:35.120Z,98233.41
2018-12-24T11:54:42.057Z,98233.42
2018-12-24T11:57:48.944Z,98238.50
2018-12-24T12:00:56.044Z,98248.17
2018-12-24T12:04:03.180Z,98248.56
2018-12-24T12:07:10.325Z,98256.48
2018-12-24T12:10:17.248Z,98262.33
2018-12-24T12:13:24.174Z,98263.22
2018-12-24T12:16:31.858Z,98269.51
2018-12-24T12:19:39.101Z,98271.17
2018-12-24T12:22:45.859Z,98275.30
2018-12-24T12:25:52.605Z,98280.86
2018-12-24T12:28:59.556Z,98288.45
2018-12-24T12:32:06.486Z,98288.86
2018-12-24T12:35:13.412Z,98292.61
2018-12-24T12:38:20.425Z,98302.66
2018-12-24T12:41:27.433Z,98300.65
2018-12-24T12:44:34.543Z,98308.64
2018-12-24T12:47:41.670Z,98307.90
2018-12-24T12:50:48.375Z,98311.73
2018-12-24T12:53:55.576Z,98309.98
2018-12-24T12:57:02.317Z,98321.47
2018-12-24T13:00:09.375Z,98328.62
2018-12-24T13:03:17.089Z,98325.65
2018-12-24T13:06:23.990Z,98339.08
2018-12-24T13:09:31.031Z,98352.09
2018-12-24T13:12:38.032Z,98348.36
2018-12-24T13:15:45.210Z,98358.73
2018-12-24T13:18:52.103Z,98359.29
2018-12-24T13:22:04.245Z,98359.61
2018-12-24T13:25:08.003Z,98372.72
2018-12-24T13:28:15.147Z,98378.30
2018-12-24T13:31:22.029Z,98391.97
2018-12-24T13:34:28.967Z,98393.80
2018-12-24T13:37:36.082Z,98409.20
2018-12-24T13:40:43.144Z,98416.19
2018-12-24T13:43:50.033Z,98425.27
2018-12-24T13:46:56.956Z,98428.91
2018-12-24T13:50:04.165Z,98425.18
2018-12-24T13:53:11.100Z,98431.20
2018-12-24T13:56:18.029Z,98437.77
2018-12-24T13:59:26.066Z,98449.16
2018-12-24T14:02:33.078Z,98455.47
2018-12-24T14:05:40.483Z,98461.06
2018-12-24T14:08:47.560Z,98473.42
2018-12-24T14:11:54.585Z,98486.00
2018-12-24T14:15:01.488Z,98503.52
2018-12-24T14:18:08.644Z,98503.48
2018-12-24T14:21:15.627Z,98512.45
2018-12-24T14:24:22.356Z,98513.97
2018-12-24T14:27:29.033Z,98522.80
2018-12-24T14:30:36.007Z,98519.02
2018-12-24T14:33:43.034Z,98523.26
2018-12-24T14:36:50.512Z,98538.86
2018-12-24T14:39:57.703Z,98551.17
2018-12-24T14:43:04.719Z,98557.80
2018-12-24T14:46:11.863Z,98557.66
2018-12-24T14:49:18.785Z,98568.91
2018-12-24T14:52:25.911Z,98570.13
2018-12-24T14:55:32.666Z,98572.47
2018-12-24T14:58:39.473Z,98582.45
2018-12-24T15:01:46.618Z,98591.95
2018-12-24T15:04:53.894Z,98612.47
2018-12-24T15:08:00.892Z,98610.23
2018-12-24T15:11:07.797Z,98610.77
2018-12-24T15:14:15.088Z,98602.30
2018-12-24T15:17:22.166Z,98600.57
2018-12-24T15:20:29.671Z,98601.35
2018-12-24T15:23:36.552Z,98610.73
2018-12-24T15:26:45.839Z,98619.41
2018-12-24T15:29:52.874Z,98619.44
2018-12-24T15:33:00.035Z,98619.84
2018-12-24T15:36:07.031Z,98628.02
2018-12-24T15:39:13.991Z,98636.27
2018-12-24T15:42:21.019Z,98636.40
2018-12-24T15:45:28.202Z,98643.04
2018-12-24T15:48:35.587Z,98651.19
2018-12-24T15:51:46.316Z,98638.55
2018-12-24T15:54:53.683Z,98649.53
2018-12-24T15:58:00.738Z,98656.73
2018-12-24T16:01:07.899Z,98653.31
2018-12-24T16:04:15.074Z,98651.05
2018-12-24T16:07:22.162Z,98658.61
2018-12-24T16:10:29.487Z,98668.80
2018-12-24T16:13:36.377Z,98671.33
2018-12-24T16:16:50.816Z,98678.00
2018-12-24T16:19:52.502Z,98680.52
2018-12-24T16:22:59.289Z,98685.17
2018-12-24T16:26:06.186Z,98683.28
2018-12-24T16:29:13.585Z,98694.12
2018-12-24T16:32:20.518Z,98695.23
2018-12-24T16:35:27.515Z,98690.82
2018-12-24T16:38:34.737Z,98694.69
2018-12-24T16:41:41.793Z,98701.58
2018-12-24T16:44:48.840Z,98702.58
2018-12-24T16:47:55.858Z,98709.58
2018-12-24T16:51:03.641Z,98717.79
2018-12-24T16:54:12.314Z,98715.47
2018-12-24T16:57:19.151Z,98719.91
2018-12-24T17:00:26.292Z,98714.91
2018-12-24T17:03:33.075Z,98716.42
2018-12-24T17:06:40.767Z,98721.06
2018-12-24T17:09:47.894Z,98715.50
2018-12-24T17:12:54.993Z,98719.83
2018-12-24T17:16:01.878Z,98716.25
2018-12-24T17:19:09.197Z,98707.16
2018-12-24T17:22:16.107Z,98702.84
2018-12-24T17:25:29.204Z,98700.80
2018-12-24T17:28:36.294Z,98692.34
2018-12-24T17:31:44.098Z,98696.23
2018-12-24T17:34:51.121Z,98700.27
2018-12-24T17:37:58.336Z,98702.58
2018-12-24T17:41:05.043Z,98703.55
2018-12-24T17:44:12.271Z,98699.50
2018-12-24T17:47:19.454Z,98706.70
2018-12-24T17:50:26.548Z,98715.69
2018-12-24T17:53:33.425Z,98722.18
2018-12-24T17:56:40.722Z,98730.83
2018-12-24T17:59:47.562Z,98728.55
2018-12-24T18:02:54.485Z,98729.70
2018-12-24T18:06:02.739Z,98731.66
2018-12-24T18:09:10.216Z,98726.80
2018-12-24T18:12:17.276Z,98736.00
2018-12-24T18:15:24.333Z,98748.11
2018-12-24T18:18:32.717Z,98754.90
2018-12-24T18:21:42.309Z,98766.77
2018-12-24T18:24:49.207Z,98774.84
2018-12-24T18:27:56.135Z,98775.95
2018-12-24T18:31:03.321Z,98787.16
2018-12-24T18:34:10.235Z,98785.83
2018-12-24T18:37:17.191Z,98787.09
2018-12-24T18:40:24.111Z,98793.74
2018-12-24T18:43:31.036Z,98792.36
2018-12-24T18:46:38.993Z,98798.47
2018-12-24T18:49:48.456Z,98803.30
2018-12-24T18:52:55.425Z,98801.17
2018-12-24T18:56:02.404Z,98792.73
2018-12-24T18:59:09.308Z,98786.57
2018-12-24T19:02:16.436Z,98790.00
2018-12-24T19:05:24.929Z,98795.95
2018-12-24T19:08:34.836Z,98805.05
2018-12-24T19:11:43.200Z,98797.89
2018-12-24T19:14:50.302Z,98804.37
2018-12-24T19:17:57.308Z,98798.87
2018-12-24T19:21:04.209Z,98796.85
2018-12-24T19:24:11.428Z,98802.25
2018-12-24T19:27:19.414Z,98799.86
2018-12-24T19:30:26.378Z,98800.09
2018-12-24T19:33:33.190Z,98793.85
2018-12-24T19:36:40.298Z,98789.36
2018-12-24T19:39:48.443Z,98776.75
2018-12-24T19:42:55.721Z,98770.28
2018-12-24T19:46:02.386Z,98756.24
2018-12-24T19:49:09.299Z,98755.94
2018-12-24T19:52:16.230Z,98758.21
2018-12-24T19:55:23.173Z,98755.34
2018-12-24T19:58:32.009Z,98746.16
2018-12-24T20:01:39.188Z,98743.68
2018-12-24T20:04:46.071Z,98741.38
2018-12-24T20:07:53.184Z,98738.63
2018-12-24T20:11:00.124Z,98732.96
2018-12-24T20:14:07.115Z,98729.73
2018-12-24T20:17:13.961Z,98726.10
2018-12-24T20:20:21.571Z,98729.73
2018-12-24T20:23:28.538Z,98739.54
2018-12-24T20:26:35.584Z,98745.31
2018-12-24T20:29:42.706Z,98744.77
2018-12-24T20:32:49.651Z,98747.14
2018-12-24T20:35:56.541Z,98752.09
2018-12-24T20:39:05.477Z,98746.13
2018-12-24T20:42:12.556Z,98746.93
2018-12-24T20:45:19.571Z,98750.23
2018-12-24T20:48:26.448Z,98754.51
2018-12-24T20:51:33.699Z,98759.89
2018-12-24T20:54:40.640Z,98772.51
2018-12-24T20:57:47.537Z,98783.25
2018-12-24T21:00:54.815Z,98785.78
2018-12-24T21:04:01.614Z,98794.74
2018-12-24T21:07:08.673Z,98794.58
2018-12-24T21:10:17.576Z,98794.98
2018-12-24T21:13:24.735Z,98809.63
2018-12-24T21:16:31.998Z,98807.30
2018-12-24T21:19:38.979Z,98819.25
2018-12-24T21:22:46.451Z,98824.72
2018-12-24T21:25:53.484Z,98832.11
2018-12-24T21:29:00.259Z,98832.85
2018-12-24T21:32:06.988Z,98837.84
2018-12-24T21:35:13.711Z,98843.45
2018-12-24T21:38:20.396Z,98835.93
2018-12-24T21:41:27.304Z,98845.36
2018-12-24T21:44:34.241Z,98852.45
2018-12-24T21:47:41.597Z,98851.19
2018-12-24T21:50:48.274Z,98856.45
2018-12-24T21:53:55.020Z,98851.45
2018-12-24T21:57:01.913Z,98848.97
2018-12-24T22:00:09.276Z,98845.53
2018-12-24T22:03:19.703Z,98852.09
2018-12-24T22:06:28.529Z,98856.80
2018-12-24T22:09:35.535Z,98846.49
2018-12-24T22:12:42.539Z,98844.95
2018-12-24T22:15:49.525Z,98851.01
2018-12-24T22:18:56.725Z,98847.80
2018-12-24T22:22:03.464Z,98835.02
2018-12-24T22:25:10.658Z,98827.98
2018-12-24T22:28:17.804Z,98830.38
2018-12-24T22:31:24.794Z,98830.28
2018-12-24T22:34:31.892Z,98819.67
2018-12-24T22:37:38.905Z,98824.98
2018-12-24T22:40:46.290Z,98833.72
2018-12-24T22:43:53.293Z,98843.58
2018-12-24T22:47:00.459Z,98843.23
2018-12-24T22:50:07.423Z,98837.32
2018-12-24T22:53:15.445Z,98833.41
2018-12-24T22:56:22.280Z,98828.84
2018-12-24T22:59:29.304Z,98822.46
2018-12-24T23:02:36.021Z,98809.08
2018-12-24T23:05:45.464Z,98808.33
2018-12-24T23:08:52.366Z,98801.42
2018-12-24T23:11:59.344Z,98787.53
2018-12-24T23:15:06.743Z,98787.55
2018-12-24T23:18:13.479Z,98791.48
2018-12-24T23:21:21.107Z,98789.08
2018-12-24T23:24:27.986Z,98786.03
2018-12-24T23:27:35.427Z,98788.07
2018-12-24T23:30:43.390Z,98791.83
2018-12-24T23:33:50.340Z,98783.89
2018-12-24T23:36:57.890Z,98787.17
2018-12-24T23:40:05.746Z,98785.77
2018-12-24T23:43:13.284Z,98781.31
2018-12-24T23:46:20.324Z,98788.71
2018-12-24T23:49:27.298Z,98791.04
2018-12-24T23:52:35.288Z,98791.98
2018-12-24T23:55:42.695Z,98799.20
2018-12-24T23:58:49.701Z,98790.22
